Bryantsville, Kentucky
Current Conditions -  °F | °C
As of 1:55 PM on Friday 24 Oct 2014 (Local Time) from KDVK Reporting Station
Haze Haze  
Wind Chill: 59°   Ceiling: Unl
Heat Index: 59°   Visibility: 4mi
Dew Point: 41°   Wind: 0mph
Humidity: 51%   Direction: NA
Pressure: 30.11"   Gusts: NA
Location:  37.71°N, 84.65°W
Report Text: KDVK 241755Z AUTO 00000KT 4SM HZ CLR 15/05 A3011 RMK AO2
Loading
Personal Weather Stations






























Interactive Weather Map
Tropical Storm Tracking
New forecast layout! Learn more

10-Day Weather Forecast

Advertisements
Track Severe Weather on mobile